sensor_id;sensor_type;location;lat;lon;timestamp;P1;P2;P0
80639;PMS5003;69992;60.170;24.692;2023-08-08T00:01:40;17;17;
80639;PMS5003;69992;60.170;24.692;2023-08-08T00:04:05;17;16;
80639;PMS5003;69992;60.170;24.692;2023-08-08T00:06:30;17;17;
80639;PMS5003;69992;60.170;24.692;2023-08-08T00:08:56;16;16;
80639;PMS5003;69992;60.170;24.692;2023-08-08T00:11:21;17;17;
80639;PMS5003;69992;60.170;24.692;2023-08-08T00:13:46;16;16;
80639;PMS5003;69992;60.170;24.692;2023-08-08T00:16:12;17;17;
80639;PMS5003;69992;60.170;24.692;2023-08-08T00:18:37;17;17;
80639;PMS5003;69992;60.170;24.692;2023-08-08T00:21:02;19;18;
80639;PMS5003;69992;60.170;24.692;2023-08-08T00:23:28;18;16;
80639;PMS5003;69992;60.170;24.692;2023-08-08T00:25:54;16;16;
80639;PMS5003;69992;60.170;24.692;2023-08-08T00:28:19;18;17;
80639;PMS5003;69992;60.170;24.692;2023-08-08T00:30:44;19;15;
80639;PMS5003;69992;60.170;24.692;2023-08-08T00:33:10;19;18;
80639;PMS5003;69992;60.170;24.692;2023-08-08T00:35:35;17;17;
80639;PMS5003;69992;60.170;24.692;2023-08-08T00:38:00;19;19;
80639;PMS5003;69992;60.170;24.692;2023-08-08T00:40:26;16;16;
80639;PMS5003;69992;60.170;24.692;2023-08-08T00:42:51;16;16;
80639;PMS5003;69992;60.170;24.692;2023-08-08T00:45:17;16;14;
80639;PMS5003;69992;60.170;24.692;2023-08-08T00:47:42;15;14;
80639;PMS5003;69992;60.170;24.692;2023-08-08T00:50:08;14;14;
80639;PMS5003;69992;60.170;24.692;2023-08-08T00:52:33;15;15;
80639;PMS5003;69992;60.170;24.692;2023-08-08T00:54:59;17;16;
80639;PMS5003;69992;60.170;24.692;2023-08-08T00:57:26;16;16;
80639;PMS5003;69992;60.170;24.692;2023-08-08T00:59:50;19;19;
80639;PMS5003;69992;60.170;24.692;2023-08-08T01:02:15;19;19;
80639;PMS5003;69992;60.170;24.692;2023-08-08T01:04:40;14;14;
80639;PMS5003;69992;60.170;24.692;2023-08-08T01:07:09;16;16;
80639;PMS5003;69992;60.170;24.692;2023-08-08T01:09:32;17;17;
80639;PMS5003;69992;60.170;24.692;2023-08-08T01:11:57;16;16;
80639;PMS5003;69992;60.170;24.692;2023-08-08T01:14:22;15;14;
80639;PMS5003;69992;60.170;24.692;2023-08-08T01:16:48;13;13;
80639;PMS5003;69992;60.170;24.692;2023-08-08T01:19:15;16;16;
80639;PMS5003;69992;60.170;24.692;2023-08-08T01:21:39;15;14;
80639;PMS5003;69992;60.170;24.692;2023-08-08T01:26:29;16;16;
80639;PMS5003;69992;60.170;24.692;2023-08-08T01:28:55;14;14;
80639;PMS5003;69992;60.170;24.692;2023-08-08T01:31:20;15;15;
80639;PMS5003;69992;60.170;24.692;2023-08-08T01:33:45;16;16;
80639;PMS5003;69992;60.170;24.692;2023-08-08T01:36:12;16;14;
80639;PMS5003;69992;60.170;24.692;2023-08-08T01:38:37;18;16;
80639;PMS5003;69992;60.170;24.692;2023-08-08T01:41:01;17;16;
80639;PMS5003;69992;60.170;24.692;2023-08-08T01:43:27;17;17;
80639;PMS5003;69992;60.170;24.692;2023-08-08T01:45:52;16;16;
80639;PMS5003;69992;60.170;24.692;2023-08-08T01:48:17;16;16;
80639;PMS5003;69992;60.170;24.692;2023-08-08T01:50:43;16;14;
80639;PMS5003;69992;60.170;24.692;2023-08-08T01:53:08;16;16;
80639;PMS5003;69992;60.170;24.692;2023-08-08T01:55:33;19;18;
80639;PMS5003;69992;60.170;24.692;2023-08-08T01:57:59;17;16;
80639;PMS5003;69992;60.170;24.692;2023-08-08T02:00:25;25;22;
80639;PMS5003;69992;60.170;24.692;2023-08-08T02:02:50;17;17;
80639;PMS5003;69992;60.170;24.692;2023-08-08T02:05:15;19;19;
80639;PMS5003;69992;60.170;24.692;2023-08-08T02:07:41;15;15;
80639;PMS5003;69992;60.170;24.692;2023-08-08T02:10:07;15;15;
80639;PMS5003;69992;60.170;24.692;2023-08-08T02:12:32;16;16;
80639;PMS5003;69992;60.170;24.692;2023-08-08T02:14:57;16;16;
80639;PMS5003;69992;60.170;24.692;2023-08-08T02:17:23;17;17;
80639;PMS5003;69992;60.170;24.692;2023-08-08T02:19:48;15;15;
80639;PMS5003;69992;60.170;24.692;2023-08-08T02:22:14;16;16;
80639;PMS5003;69992;60.170;24.692;2023-08-08T02:24:39;16;16;
80639;PMS5003;69992;60.170;24.692;2023-08-08T02:27:05;16;15;
80639;PMS5003;69992;60.170;24.692;2023-08-08T02:29:30;16;16;
80639;PMS5003;69992;60.170;24.692;2023-08-08T02:31:55;18;18;
80639;PMS5003;69992;60.170;24.692;2023-08-08T02:34:21;18;17;
80639;PMS5003;69992;60.170;24.692;2023-08-08T02:36:46;17;17;
80639;PMS5003;69992;60.170;24.692;2023-08-08T02:39:12;18;18;
80639;PMS5003;69992;60.170;24.692;2023-08-08T02:41:37;15;15;
80639;PMS5003;69992;60.170;24.692;2023-08-08T02:44:03;17;14;
80639;PMS5003;69992;60.170;24.692;2023-08-08T02:46:28;17;17;
80639;PMS5003;69992;60.170;24.692;2023-08-08T02:48:54;19;18;
80639;PMS5003;69992;60.170;24.692;2023-08-08T02:51:19;16;16;
80639;PMS5003;69992;60.170;24.692;2023-08-08T02:53:44;16;16;
80639;PMS5003;69992;60.170;24.692;2023-08-08T02:56:10;16;16;
80639;PMS5003;69992;60.170;24.692;2023-08-08T02:58:35;17;17;
80639;PMS5003;69992;60.170;24.692;2023-08-08T03:01:00;16;15;
80639;PMS5003;69992;60.170;24.692;2023-08-08T03:03:26;16;15;
80639;PMS5003;69992;60.170;24.692;2023-08-08T03:05:51;22;17;
80639;PMS5003;69992;60.170;24.692;2023-08-08T03:08:16;16;16;
80639;PMS5003;69992;60.170;24.692;2023-08-08T03:10:41;16;15;
80639;PMS5003;69992;60.170;24.692;2023-08-08T03:13:07;16;15;
80639;PMS5003;69992;60.170;24.692;2023-08-08T03:15:32;13;13;
80639;PMS5003;69992;60.170;24.692;2023-08-08T03:17:58;15;15;
80639;PMS5003;69992;60.170;24.692;2023-08-08T03:20:23;16;16;
80639;PMS5003;69992;60.170;24.692;2023-08-08T03:22:49;16;16;
80639;PMS5003;69992;60.170;24.692;2023-08-08T03:25:14;17;17;
80639;PMS5003;69992;60.170;24.692;2023-08-08T03:27:39;15;14;
80639;PMS5003;69992;60.170;24.692;2023-08-08T03:30:05;14;14;
80639;PMS5003;69992;60.170;24.692;2023-08-08T03:32:30;12;12;
80639;PMS5003;69992;60.170;24.692;2023-08-08T03:34:56;13;13;
80639;PMS5003;69992;60.170;24.692;2023-08-08T03:37:21;14;14;
80639;PMS5003;69992;60.170;24.692;2023-08-08T03:39:46;13;13;
80639;PMS5003;69992;60.170;24.692;2023-08-08T03:42:12;13;13;
80639;PMS5003;69992;60.170;24.692;2023-08-08T03:44:37;14;14;
80639;PMS5003;69992;60.170;24.692;2023-08-08T03:47:03;11;11;
80639;PMS5003;69992;60.170;24.692;2023-08-08T03:49:28;13;13;
80639;PMS5003;69992;60.170;24.692;2023-08-08T03:51:54;13;12;
80639;PMS5003;69992;60.170;24.692;2023-08-08T03:54:19;14;13;
80639;PMS5003;69992;60.170;24.692;2023-08-08T03:56:44;15;13;
80639;PMS5003;69992;60.170;24.692;2023-08-08T03:59:10;13;13;
80639;PMS5003;69992;60.170;24.692;2023-08-08T04:01:35;13;13;
80639;PMS5003;69992;60.170;24.692;2023-08-08T04:04:01;16;14;
80639;PMS5003;69992;60.170;24.692;2023-08-08T04:06:26;11;11;
80639;PMS5003;69992;60.170;24.692;2023-08-08T04:08:52;12;12;
80639;PMS5003;69992;60.170;24.692;2023-08-08T04:11:17;17;14;
80639;PMS5003;69992;60.170;24.692;2023-08-08T04:13:42;9;9;
80639;PMS5003;69992;60.170;24.692;2023-08-08T04:16:08;12;12;
80639;PMS5003;69992;60.170;24.692;2023-08-08T04:18:33;10;10;
80639;PMS5003;69992;60.170;24.692;2023-08-08T04:20:59;9;9;
80639;PMS5003;69992;60.170;24.692;2023-08-08T04:23:24;12;11;
80639;PMS5003;69992;60.170;24.692;2023-08-08T04:25:50;9;9;
80639;PMS5003;69992;60.170;24.692;2023-08-08T04:28:15;10;9;
80639;PMS5003;69992;60.170;24.692;2023-08-08T04:30:40;10;10;
80639;PMS5003;69992;60.170;24.692;2023-08-08T04:33:06;11;10;
80639;PMS5003;69992;60.170;24.692;2023-08-08T04:35:31;8;8;
80639;PMS5003;69992;60.170;24.692;2023-08-08T04:37:57;10;8;
80639;PMS5003;69992;60.170;24.692;2023-08-08T04:40:22;7;7;
80639;PMS5003;69992;60.170;24.692;2023-08-08T04:42:48;11;10;
80639;PMS5003;69992;60.170;24.692;2023-08-08T04:45:13;8;8;
80639;PMS5003;69992;60.170;24.692;2023-08-08T04:47:38;7;7;
80639;PMS5003;69992;60.170;24.692;2023-08-08T04:50:04;9;8;
80639;PMS5003;69992;60.170;24.692;2023-08-08T04:52:29;7;7;
80639;PMS5003;69992;60.170;24.692;2023-08-08T04:54:55;8;8;
80639;PMS5003;69992;60.170;24.692;2023-08-08T04:57:20;5;5;
80639;PMS5003;69992;60.170;24.692;2023-08-08T04:59:46;8;7;
80639;PMS5003;69992;60.170;24.692;2023-08-08T05:02:12;6;6;
80639;PMS5003;69992;60.170;24.692;2023-08-08T05:04:36;6;6;
80639;PMS5003;69992;60.170;24.692;2023-08-08T05:07:02;6;4;
80639;PMS5003;69992;60.170;24.692;2023-08-08T05:09:27;5;5;
80639;PMS5003;69992;60.170;24.692;2023-08-08T05:11:53;4;4;
80639;PMS5003;69992;60.170;24.692;2023-08-08T05:14:18;6;6;
80639;PMS5003;69992;60.170;24.692;2023-08-08T05:16:43;6;6;
80639;PMS5003;69992;60.170;24.692;2023-08-08T05:19:09;5;5;
80639;PMS5003;69992;60.170;24.692;2023-08-08T05:21:34;8;8;
80639;PMS5003;69992;60.170;24.692;2023-08-08T05:24:00;8;7;
80639;PMS5003;69992;60.170;24.692;2023-08-08T05:26:25;7;6;
80639;PMS5003;69992;60.170;24.692;2023-08-08T05:28:51;5;5;
80639;PMS5003;69992;60.170;24.692;2023-08-08T05:31:16;6;4;
80639;PMS5003;69992;60.170;24.692;2023-08-08T05:33:41;6;6;
80639;PMS5003;69992;60.170;24.692;2023-08-08T05:36:07;4;4;
80639;PMS5003;69992;60.170;24.692;2023-08-08T05:38:32;5;5;
80639;PMS5003;69992;60.170;24.692;2023-08-08T05:40:58;6;5;
80639;PMS5003;69992;60.170;24.692;2023-08-08T05:43:23;6;6;
80639;PMS5003;69992;60.170;24.692;2023-08-08T05:45:49;6;6;
80639;PMS5003;69992;60.170;24.692;2023-08-08T05:48:14;7;7;
80639;PMS5003;69992;60.170;24.692;2023-08-08T05:50:40;8;8;
80639;PMS5003;69992;60.170;24.692;2023-08-08T05:53:05;10;9;
80639;PMS5003;69992;60.170;24.692;2023-08-08T05:55:30;8;7;
80639;PMS5003;69992;60.170;24.692;2023-08-08T05:57:56;6;6;
80639;PMS5003;69992;60.170;24.692;2023-08-08T06:00:21;6;5;
80639;PMS5003;69992;60.170;24.692;2023-08-08T06:02:46;7;7;
80639;PMS5003;69992;60.170;24.692;2023-08-08T06:05:12;5;5;
80639;PMS5003;69992;60.170;24.692;2023-08-08T06:07:37;4;2;
80639;PMS5003;69992;60.170;24.692;2023-08-08T06:10:03;0;0;
80639;PMS5003;69992;60.170;24.692;2023-08-08T06:12:28;1;1;
80639;PMS5003;69992;60.170;24.692;2023-08-08T06:14:54;1;0;
80639;PMS5003;69992;60.170;24.692;2023-08-08T06:17:19;0;0;
80639;PMS5003;69992;60.170;24.692;2023-08-08T06:19:45;0;0;
80639;PMS5003;69992;60.170;24.692;2023-08-08T06:22:10;0;0;
80639;PMS5003;69992;60.170;24.692;2023-08-08T06:24:35;0;0;
80639;PMS5003;69992;60.170;24.692;2023-08-08T06:27:01;0;0;
80639;PMS5003;69992;60.170;24.692;2023-08-08T06:29:27;0;0;
80639;PMS5003;69992;60.170;24.692;2023-08-08T06:31:52;0;0;
80639;PMS5003;69992;60.170;24.692;2023-08-08T06:34:17;0;0;
80639;PMS5003;69992;60.170;24.692;2023-08-08T06:36:43;0;0;
80639;PMS5003;69992;60.170;24.692;2023-08-08T06:39:08;0;0;
80639;PMS5003;69992;60.170;24.692;2023-08-08T06:41:34;0;0;
80639;PMS5003;69992;60.170;24.692;2023-08-08T06:43:59;0;0;
80639;PMS5003;69992;60.170;24.692;2023-08-08T06:46:24;0;0;
80639;PMS5003;69992;60.170;24.692;2023-08-08T06:48:50;0;0;
80639;PMS5003;69992;60.170;24.692;2023-08-08T06:51:15;0;0;
80639;PMS5003;69992;60.170;24.692;2023-08-08T06:53:41;0;0;
80639;PMS5003;69992;60.170;24.692;2023-08-08T06:56:06;0;0;
80639;PMS5003;69992;60.170;24.692;2023-08-08T06:58:32;1;0;
80639;PMS5003;69992;60.170;24.692;2023-08-08T07:00:57;0;0;
80639;PMS5003;69992;60.170;24.692;2023-08-08T07:03:23;0;0;
80639;PMS5003;69992;60.170;24.692;2023-08-08T07:05:48;0;0;
80639;PMS5003;69992;60.170;24.692;2023-08-08T07:08:14;0;0;
80639;PMS5003;69992;60.170;24.692;2023-08-08T07:10:39;0;0;
80639;PMS5003;69992;60.170;24.692;2023-08-08T07:13:04;0;0;
80639;PMS5003;69992;60.170;24.692;2023-08-08T07:15:30;0;0;
80639;PMS5003;69992;60.170;24.692;2023-08-08T07:17:55;0;0;
80639;PMS5003;69992;60.170;24.692;2023-08-08T07:20:21;0;0;
80639;PMS5003;69992;60.170;24.692;2023-08-08T07:22:46;0;0;
80639;PMS5003;69992;60.170;24.692;2023-08-08T07:25:12;0;0;
80639;PMS5003;69992;60.170;24.692;2023-08-08T07:27:37;0;0;
80639;PMS5003;69992;60.170;24.692;2023-08-08T07:30:03;0;0;
80639;PMS5003;69992;60.170;24.692;2023-08-08T07:32:28;1;1;
80639;PMS5003;69992;60.170;24.692;2023-08-08T07:34:53;0;0;
80639;PMS5003;69992;60.170;24.692;2023-08-08T07:37:19;0;0;
80639;PMS5003;69992;60.170;24.692;2023-08-08T07:39:44;0;0;
80639;PMS5003;69992;60.170;24.692;2023-08-08T07:42:10;0;0;
80639;PMS5003;69992;60.170;24.692;2023-08-08T07:44:35;0;0;
80639;PMS5003;69992;60.170;24.692;2023-08-08T07:47:01;0;0;
80639;PMS5003;69992;60.170;24.692;2023-08-08T07:49:26;0;0;
80639;PMS5003;69992;60.170;24.692;2023-08-08T07:51:52;0;0;
80639;PMS5003;69992;60.170;24.692;2023-08-08T07:54:17;0;0;
80639;PMS5003;69992;60.170;24.692;2023-08-08T07:56:42;0;0;
80639;PMS5003;69992;60.170;24.692;2023-08-08T07:59:08;0;0;
80639;PMS5003;69992;60.170;24.692;2023-08-08T08:01:33;0;0;
80639;PMS5003;69992;60.170;24.692;2023-08-08T08:03:59;1;1;
80639;PMS5003;69992;60.170;24.692;2023-08-08T08:06:24;0;0;
80639;PMS5003;69992;60.170;24.692;2023-08-08T08:08:50;0;0;
80639;PMS5003;69992;60.170;24.692;2023-08-08T08:11:15;0;0;
80639;PMS5003;69992;60.170;24.692;2023-08-08T08:13:41;0;0;
80639;PMS5003;69992;60.170;24.692;2023-08-08T08:16:06;1;1;
80639;PMS5003;69992;60.170;24.692;2023-08-08T08:18:31;1;1;
80639;PMS5003;69992;60.170;24.692;2023-08-08T08:20:57;0;0;
80639;PMS5003;69992;60.170;24.692;2023-08-08T08:23:22;2;1;
80639;PMS5003;69992;60.170;24.692;2023-08-08T08:25:48;1;1;
80639;PMS5003;69992;60.170;24.692;2023-08-08T08:28:13;1;1;
80639;PMS5003;69992;60.170;24.692;2023-08-08T08:30:39;0;0;
80639;PMS5003;69992;60.170;24.692;2023-08-08T08:33:04;0;0;
80639;PMS5003;69992;60.170;24.692;2023-08-08T08:35:30;0;0;
80639;PMS5003;69992;60.170;24.692;2023-08-08T08:37:55;0;0;
80639;PMS5003;69992;60.170;24.692;2023-08-08T08:40:21;0;0;
80639;PMS5003;69992;60.170;24.692;2023-08-08T08:42:46;1;1;
80639;PMS5003;69992;60.170;24.692;2023-08-08T08:45:11;1;1;
80639;PMS5003;69992;60.170;24.692;2023-08-08T08:47:37;0;0;
80639;PMS5003;69992;60.170;24.692;2023-08-08T08:50:03;0;0;
80639;PMS5003;69992;60.170;24.692;2023-08-08T08:52:28;2;1;
80639;PMS5003;69992;60.170;24.692;2023-08-08T08:54:53;0;0;
80639;PMS5003;69992;60.170;24.692;2023-08-08T08:57:19;1;1;
80639;PMS5003;69992;60.170;24.692;2023-08-08T08:59:44;0;0;
80639;PMS5003;69992;60.170;24.692;2023-08-08T09:02:09;1;1;
80639;PMS5003;69992;60.170;24.692;2023-08-08T09:04:35;0;0;
80639;PMS5003;69992;60.170;24.692;2023-08-08T09:07:00;2;0;
80639;PMS5003;69992;60.170;24.692;2023-08-08T09:09:26;0;0;
80639;PMS5003;69992;60.170;24.692;2023-08-08T09:11:53;0;0;
80639;PMS5003;69992;60.170;24.692;2023-08-08T09:14:17;0;0;
80639;PMS5003;69992;60.170;24.692;2023-08-08T09:16:42;0;0;
80639;PMS5003;69992;60.170;24.692;2023-08-08T09:19:07;1;1;
80639;PMS5003;69992;60.170;24.692;2023-08-08T09:21:33;0;0;
80639;PMS5003;69992;60.170;24.692;2023-08-08T09:23:58;0;0;
80639;PMS5003;69992;60.170;24.692;2023-08-08T09:26:24;0;0;
80639;PMS5003;69992;60.170;24.692;2023-08-08T09:28:50;1;1;
80639;PMS5003;69992;60.170;24.692;2023-08-08T09:31:15;0;0;
80639;PMS5003;69992;60.170;24.692;2023-08-08T09:33:40;0;0;
80639;PMS5003;69992;60.170;24.692;2023-08-08T09:36:06;0;0;
80639;PMS5003;69992;60.170;24.692;2023-08-08T09:38:31;0;0;
80639;PMS5003;69992;60.170;24.692;2023-08-08T09:40:56;1;1;
80639;PMS5003;69992;60.170;24.692;2023-08-08T09:43:22;0;0;
80639;PMS5003;69992;60.170;24.692;2023-08-08T09:45:47;1;1;
80639;PMS5003;69992;60.170;24.692;2023-08-08T09:48:13;0;0;
80639;PMS5003;69992;60.170;24.692;2023-08-08T09:50:38;0;0;
80639;PMS5003;69992;60.170;24.692;2023-08-08T09:53:04;0;0;
80639;PMS5003;69992;60.170;24.692;2023-08-08T09:55:29;0;0;
80639;PMS5003;69992;60.170;24.692;2023-08-08T09:57:54;0;0;
80639;PMS5003;69992;60.170;24.692;2023-08-08T10:00:20;0;0;
80639;PMS5003;69992;60.170;24.692;2023-08-08T10:02:45;0;0;
80639;PMS5003;69992;60.170;24.692;2023-08-08T10:05:11;1;1;
80639;PMS5003;69992;60.170;24.692;2023-08-08T10:07:36;1;1;
80639;PMS5003;69992;60.170;24.692;2023-08-08T10:10:01;0;0;
80639;PMS5003;69992;60.170;24.692;2023-08-08T10:12:27;1;1;
80639;PMS5003;69992;60.170;24.692;2023-08-08T10:14:52;0;0;
80639;PMS5003;69992;60.170;24.692;2023-08-08T10:17:18;0;0;
80639;PMS5003;69992;60.170;24.692;2023-08-08T10:22:08;1;1;
80639;PMS5003;69992;60.170;24.692;2023-08-08T10:24:34;1;0;
80639;PMS5003;69992;60.170;24.692;2023-08-08T10:26:59;1;1;
80639;PMS5003;69992;60.170;24.692;2023-08-08T10:29:25;1;1;
80639;PMS5003;69992;60.170;24.692;2023-08-08T10:31:51;1;1;
80639;PMS5003;69992;60.170;24.692;2023-08-08T10:34:15;0;0;
80639;PMS5003;69992;60.170;24.692;2023-08-08T10:36:45;1;1;
80639;PMS5003;69992;60.170;24.692;2023-08-08T10:39:06;1;1;
80639;PMS5003;69992;60.170;24.692;2023-08-08T10:41:31;1;1;
80639;PMS5003;69992;60.170;24.692;2023-08-08T10:43:57;1;1;
80639;PMS5003;69992;60.170;24.692;2023-08-08T10:46:23;1;1;
80639;PMS5003;69992;60.170;24.692;2023-08-08T10:48:50;2;1;
80639;PMS5003;69992;60.170;24.692;2023-08-08T10:51:13;2;2;
80639;PMS5003;69992;60.170;24.692;2023-08-08T10:53:39;0;0;
80639;PMS5003;69992;60.170;24.692;2023-08-08T10:56:04;2;2;
80639;PMS5003;69992;60.170;24.692;2023-08-08T10:58:35;1;1;
80639;PMS5003;69992;60.170;24.692;2023-08-08T11:00:55;0;0;
80639;PMS5003;69992;60.170;24.692;2023-08-08T11:03:20;1;1;
80639;PMS5003;69992;60.170;24.692;2023-08-08T11:05:46;1;1;
80639;PMS5003;69992;60.170;24.692;2023-08-08T11:08:11;1;1;
80639;PMS5003;69992;60.170;24.692;2023-08-08T11:10:39;1;1;
80639;PMS5003;69992;60.170;24.692;2023-08-08T11:13:02;2;2;
80639;PMS5003;69992;60.170;24.692;2023-08-08T11:15:27;0;0;
80639;PMS5003;69992;60.170;24.692;2023-08-08T11:17:53;2;2;
80639;PMS5003;69992;60.170;24.692;2023-08-08T11:20:18;2;1;
80639;PMS5003;69992;60.170;24.692;2023-08-08T11:22:43;3;3;
80639;PMS5003;69992;60.170;24.692;2023-08-08T11:25:09;0;0;
80639;PMS5003;69992;60.170;24.692;2023-08-08T11:27:34;1;1;
80639;PMS5003;69992;60.170;24.692;2023-08-08T11:30:00;2;2;
80639;PMS5003;69992;60.170;24.692;2023-08-08T11:32:25;2;2;
80639;PMS5003;69992;60.170;24.692;2023-08-08T11:34:50;0;0;
80639;PMS5003;69992;60.170;24.692;2023-08-08T11:37:16;1;1;
80639;PMS5003;69992;60.170;24.692;2023-08-08T11:39:41;2;2;
80639;PMS5003;69992;60.170;24.692;2023-08-08T11:42:07;1;1;
80639;PMS5003;69992;60.170;24.692;2023-08-08T11:44:32;2;1;
80639;PMS5003;69992;60.170;24.692;2023-08-08T11:46:59;1;1;
80639;PMS5003;69992;60.170;24.692;2023-08-08T11:49:23;2;2;
80639;PMS5003;69992;60.170;24.692;2023-08-08T11:51:48;2;2;
80639;PMS5003;69992;60.170;24.692;2023-08-08T11:54:13;2;2;
80639;PMS5003;69992;60.170;24.692;2023-08-08T11:56:39;2;2;
80639;PMS5003;69992;60.170;24.692;2023-08-08T11:59:04;3;2;
80639;PMS5003;69992;60.170;24.692;2023-08-08T12:01:30;1;1;
80639;PMS5003;69992;60.170;24.692;2023-08-08T12:03:55;2;2;
80639;PMS5003;69992;60.170;24.692;2023-08-08T12:06:21;2;2;
80639;PMS5003;69992;60.170;24.692;2023-08-08T12:08:46;1;1;
80639;PMS5003;69992;60.170;24.692;2023-08-08T12:11:12;2;2;
80639;PMS5003;69992;60.170;24.692;2023-08-08T12:13:37;2;1;
80639;PMS5003;69992;60.170;24.692;2023-08-08T12:16:03;2;2;
80639;PMS5003;69992;60.170;24.692;2023-08-08T12:18:28;2;2;
80639;PMS5003;69992;60.170;24.692;2023-08-08T12:20:53;2;2;
80639;PMS5003;69992;60.170;24.692;2023-08-08T12:23:18;2;2;
80639;PMS5003;69992;60.170;24.692;2023-08-08T12:25:44;2;2;
80639;PMS5003;69992;60.170;24.692;2023-08-08T12:28:09;2;2;
80639;PMS5003;69992;60.170;24.692;2023-08-08T12:30:35;0;0;
80639;PMS5003;69992;60.170;24.692;2023-08-08T12:33:00;1;1;
80639;PMS5003;69992;60.170;24.692;2023-08-08T12:35:26;2;2;
80639;PMS5003;69992;60.170;24.692;2023-08-08T12:37:51;2;2;
80639;PMS5003;69992;60.170;24.692;2023-08-08T12:40:16;2;2;
80639;PMS5003;69992;60.170;24.692;2023-08-08T12:42:42;2;2;
80639;PMS5003;69992;60.170;24.692;2023-08-08T12:45:07;1;1;
80639;PMS5003;69992;60.170;24.692;2023-08-08T12:47:33;2;2;
80639;PMS5003;69992;60.170;24.692;2023-08-08T12:49:58;1;1;
80639;PMS5003;69992;60.170;24.692;2023-08-08T12:52:23;2;2;
80639;PMS5003;69992;60.170;24.692;2023-08-08T12:54:49;2;2;
80639;PMS5003;69992;60.170;24.692;2023-08-08T12:57:14;2;2;
80639;PMS5003;69992;60.170;24.692;2023-08-08T12:59:40;1;1;
80639;PMS5003;69992;60.170;24.692;2023-08-08T13:02:05;3;3;
80639;PMS5003;69992;60.170;24.692;2023-08-08T13:04:30;0;0;
80639;PMS5003;69992;60.170;24.692;2023-08-08T13:06:56;2;1;
80639;PMS5003;69992;60.170;24.692;2023-08-08T13:09:21;2;2;
80639;PMS5003;69992;60.170;24.692;2023-08-08T13:11:47;1;1;
80639;PMS5003;69992;60.170;24.692;2023-08-08T13:14:12;2;2;
80639;PMS5003;69992;60.170;24.692;2023-08-08T13:16:38;2;2;
80639;PMS5003;69992;60.170;24.692;2023-08-08T13:19:03;2;2;
80639;PMS5003;69992;60.170;24.692;2023-08-08T13:21:28;1;1;
80639;PMS5003;69992;60.170;24.692;2023-08-08T13:23:54;0;0;
80639;PMS5003;69992;60.170;24.692;2023-08-08T13:26:19;1;0;
80639;PMS5003;69992;60.170;24.692;2023-08-08T13:28:45;2;2;
80639;PMS5003;69992;60.170;24.692;2023-08-08T13:31:10;0;0;
80639;PMS5003;69992;60.170;24.692;2023-08-08T13:33:35;2;2;
80639;PMS5003;69992;60.170;24.692;2023-08-08T13:36:01;0;0;
80639;PMS5003;69992;60.170;24.692;2023-08-08T13:38:26;2;2;
80639;PMS5003;69992;60.170;24.692;2023-08-08T13:40:51;1;1;
80639;PMS5003;69992;60.170;24.692;2023-08-08T13:43:17;2;2;
80639;PMS5003;69992;60.170;24.692;2023-08-08T13:45:42;1;1;
80639;PMS5003;69992;60.170;24.692;2023-08-08T13:48:07;1;1;
80639;PMS5003;69992;60.170;24.692;2023-08-08T13:50:33;1;1;
80639;PMS5003;69992;60.170;24.692;2023-08-08T13:52:58;3;2;
80639;PMS5003;69992;60.170;24.692;2023-08-08T13:55:23;2;2;
80639;PMS5003;69992;60.170;24.692;2023-08-08T13:57:48;2;1;
80639;PMS5003;69992;60.170;24.692;2023-08-08T14:00:14;2;2;
80639;PMS5003;69992;60.170;24.692;2023-08-08T14:02:39;3;2;
80639;PMS5003;69992;60.170;24.692;2023-08-08T14:05:05;2;2;
80639;PMS5003;69992;60.170;24.692;2023-08-08T14:07:30;3;3;
80639;PMS5003;69992;60.170;24.692;2023-08-08T14:09:55;2;2;
80639;PMS5003;69992;60.170;24.692;2023-08-08T14:12:21;1;1;
80639;PMS5003;69992;60.170;24.692;2023-08-08T14:14:46;2;2;
80639;PMS5003;69992;60.170;24.692;2023-08-08T14:17:11;1;1;
80639;PMS5003;69992;60.170;24.692;2023-08-08T14:19:37;1;1;
80639;PMS5003;69992;60.170;24.692;2023-08-08T14:22:02;1;1;
80639;PMS5003;69992;60.170;24.692;2023-08-08T14:24:27;2;1;
80639;PMS5003;69992;60.170;24.692;2023-08-08T14:26:53;1;1;
80639;PMS5003;69992;60.170;24.692;2023-08-08T14:29:18;1;1;
80639;PMS5003;69992;60.170;24.692;2023-08-08T14:31:43;0;0;
80639;PMS5003;69992;60.170;24.692;2023-08-08T14:34:09;1;1;
80639;PMS5003;69992;60.170;24.692;2023-08-08T14:36:34;0;0;
80639;PMS5003;69992;60.170;24.692;2023-08-08T14:39:00;1;1;
80639;PMS5003;69992;60.170;24.692;2023-08-08T14:41:25;1;1;
80639;PMS5003;69992;60.170;24.692;2023-08-08T14:43:50;2;1;
80639;PMS5003;69992;60.170;24.692;2023-08-08T14:46:16;2;1;
80639;PMS5003;69992;60.170;24.692;2023-08-08T14:48:41;2;2;
80639;PMS5003;69992;60.170;24.692;2023-08-08T14:51:06;1;1;
80639;PMS5003;69992;60.170;24.692;2023-08-08T14:53:32;2;2;
80639;PMS5003;69992;60.170;24.692;2023-08-08T14:55:57;1;0;
80639;PMS5003;69992;60.170;24.692;2023-08-08T14:58:23;1;1;
80639;PMS5003;69992;60.170;24.692;2023-08-08T15:00:48;1;1;
80639;PMS5003;69992;60.170;24.692;2023-08-08T15:03:13;2;2;
80639;PMS5003;69992;60.170;24.692;2023-08-08T15:05:39;4;4;
80639;PMS5003;69992;60.170;24.692;2023-08-08T15:08:04;2;2;
80639;PMS5003;69992;60.170;24.692;2023-08-08T15:10:30;2;2;
80639;PMS5003;69992;60.170;24.692;2023-08-08T15:12:55;1;1;
80639;PMS5003;69992;60.170;24.692;2023-08-08T15:15:20;4;3;
80639;PMS5003;69992;60.170;24.692;2023-08-08T15:17:46;2;2;
80639;PMS5003;69992;60.170;24.692;2023-08-08T15:20:11;1;1;
80639;PMS5003;69992;60.170;24.692;2023-08-08T15:22:37;2;2;
80639;PMS5003;69992;60.170;24.692;2023-08-08T15:25:02;2;2;
80639;PMS5003;69992;60.170;24.692;2023-08-08T15:27:28;2;2;
80639;PMS5003;69992;60.170;24.692;2023-08-08T15:29:53;2;1;
80639;PMS5003;69992;60.170;24.692;2023-08-08T15:32:18;2;2;
80639;PMS5003;69992;60.170;24.692;2023-08-08T15:34:44;2;2;
80639;PMS5003;69992;60.170;24.692;2023-08-08T15:37:09;2;2;
80639;PMS5003;69992;60.170;24.692;2023-08-08T15:39:35;1;1;
80639;PMS5003;69992;60.170;24.692;2023-08-08T15:42:00;1;1;
80639;PMS5003;69992;60.170;24.692;2023-08-08T15:44:26;2;2;
80639;PMS5003;69992;60.170;24.692;2023-08-08T15:46:51;2;2;
80639;PMS5003;69992;60.170;24.692;2023-08-08T15:49:16;2;2;
80639;PMS5003;69992;60.170;24.692;2023-08-08T15:51:42;2;2;
80639;PMS5003;69992;60.170;24.692;2023-08-08T15:54:07;1;1;
80639;PMS5003;69992;60.170;24.692;2023-08-08T15:56:34;1;1;
80639;PMS5003;69992;60.170;24.692;2023-08-08T15:58:58;2;1;
80639;PMS5003;69992;60.170;24.692;2023-08-08T16:01:24;2;2;
80639;PMS5003;69992;60.170;24.692;2023-08-08T16:03:49;2;2;
80639;PMS5003;69992;60.170;24.692;2023-08-08T16:06:15;1;1;
80639;PMS5003;69992;60.170;24.692;2023-08-08T16:08:40;3;2;
80639;PMS5003;69992;60.170;24.692;2023-08-08T16:11:05;1;1;
80639;PMS5003;69992;60.170;24.692;2023-08-08T16:13:31;1;1;
80639;PMS5003;69992;60.170;24.692;2023-08-08T16:15:57;0;0;
80639;PMS5003;69992;60.170;24.692;2023-08-08T16:18:22;2;2;